Time;durP1;ratioP1;P1;durP2;ratioP2;P2;SDS_P1;SDS_P2;PMS_P1;PMS_P2;Temp;Humidity;BMP_temperature;BMP_pressure;BME280_temperature;BME280_humidity;BME280_pressure;Samples;Min_cycle;Max_cycle;Signal;HPM_P1;HPM_P2
2023/01/16 00:01:58;;;;;;;2.63;1.30;;;;;;;6.29;100.00;99510.94;4720084;30;20068;-65
2023/01/16 00:04:27;;;;;;;2.65;1.20;;;;;;;6.29;100.00;99502.84;4723860;30;20037;-68
2023/01/16 00:06:55;;;;;;;3.50;1.67;;;;;;;6.27;100.00;99494.19;4696138;30;20073;-69
2023/01/16 00:09:22;;;;;;;4.70;1.88;;;;;;;6.23;100.00;99487.72;4735852;30;20053;-68
2023/01/16 00:11:50;;;;;;;2.47;1.75;;;;;;;6.25;100.00;99485.53;4721455;30;20064;-67
2023/01/16 00:14:18;;;;;;;2.15;1.23;;;;;;;6.25;100.00;99480.09;4723277;30;20068;-69
2023/01/16 00:16:45;;;;;;;2.03;1.27;;;;;;;6.24;100.00;99483.91;4718349;30;20057;-69
2023/01/16 00:19:13;;;;;;;2.05;1.23;;;;;;;6.24;100.00;99473.09;4717025;30;20072;-70
2023/01/16 00:21:47;;;;;;;4.68;1.65;;;;;;;6.26;100.00;99470.94;4717825;30;20061;-70
2023/01/16 00:24:15;;;;;;;4.15;1.58;;;;;;;6.26;100.00;99465.53;4717112;30;20080;-69
2023/01/16 00:26:43;;;;;;;2.70;1.10;;;;;;;6.27;100.00;99467.13;4688843;30;20055;-69
2023/01/16 00:29:10;;;;;;;2.55;1.58;;;;;;;6.30;100.00;99460.34;4717197;30;20501;-69
2023/01/16 00:31:38;;;;;;;3.95;1.75;;;;;;;6.28;100.00;99462.56;4716963;30;20498;-69
2023/01/16 00:34:06;;;;;;;4.63;1.65;;;;;;;6.27;100.00;99456.31;4717874;30;20140;-70
2023/01/16 00:36:34;;;;;;;2.95;1.52;;;;;;;6.28;100.00;99451.72;4713075;30;20222;-70
2023/01/16 00:39:01;;;;;;;4.35;1.83;;;;;;;6.27;100.00;99445.50;4699676;30;20065;-70
2023/01/16 00:41:29;;;;;;;3.90;2.03;;;;;;;6.25;100.00;99453.06;4708982;30;20079;-68
2023/01/16 00:43:58;;;;;;;4.65;1.77;;;;;;;6.25;100.00;99444.94;4720873;30;20052;-68
2023/01/16 00:46:29;;;;;;;3.47;1.77;;;;;;;6.23;100.00;99447.13;4721354;30;20380;-67
2023/01/16 00:48:57;;;;;;;3.95;1.83;;;;;;;6.23;100.00;99447.13;4705801;30;20061;-69
2023/01/16 00:51:24;;;;;;;5.72;2.05;;;;;;;6.23;100.00;99441.72;4705384;30;20487;-68
2023/01/16 00:53:52;;;;;;;3.58;1.90;;;;;;;6.21;100.00;99435.78;4705877;30;20136;-67
2023/01/16 00:56:20;;;;;;;3.97;1.98;;;;;;;6.21;100.00;99440.38;4705914;30;20118;-69
2023/01/16 00:58:48;;;;;;;4.93;1.80;;;;;;;6.17;100.00;99432.00;4721805;30;20107;-69
2023/01/16 01:01:15;;;;;;;4.38;1.90;;;;;;;6.17;100.00;99435.50;4691238;30;20439;-70
2023/01/16 01:03:43;;;;;;;5.40;1.88;;;;;;;6.18;100.00;99430.91;4724824;30;20057;-67
2023/01/16 01:06:11;;;;;;;4.93;2.00;;;;;;;6.15;100.00;99420.63;4738758;30;20084;-72
2023/01/16 01:08:39;;;;;;;4.05;1.65;;;;;;;6.16;100.00;99414.16;4738659;30;20415;-67
2023/01/16 01:11:14;;;;;;;4.80;1.90;;;;;;;6.15;100.00;99412.53;4718222;30;20081;-68
2023/01/16 01:13:42;;;;;;;5.15;2.38;;;;;;;6.14;100.00;99408.22;4714668;30;20057;-67
2023/01/16 01:16:11;;;;;;;5.88;2.15;;;;;;;6.12;100.00;99399.56;4702708;30;20054;-69
2023/01/16 01:18:39;;;;;;;4.30;1.90;;;;;;;6.09;100.00;99402.81;4702437;30;20069;-73
2023/01/16 01:21:07;;;;;;;6.63;2.05;;;;;;;6.07;100.00;99403.06;4716391;30;20093;-69
2023/01/16 01:23:35;;;;;;;7.13;2.08;;;;;;;6.05;100.00;99393.63;4711257;30;20557;-70
2023/01/16 01:26:20;;;;;;;5.85;2.17;;;;;;;6.04;100.00;99391.97;4719164;30;20088;-70
2023/01/16 01:28:48;;;;;;;7.03;2.13;;;;;;;6.03;100.00;99387.66;4690021;30;20495;-68
2023/01/16 01:31:16;;;;;;;6.93;2.17;;;;;;;6.00;100.00;99380.91;4720231;30;20049;-68
2023/01/16 01:33:43;;;;;;;5.57;2.10;;;;;;;6.00;100.00;99372.00;4703564;30;20181;-69
2023/01/16 01:36:11;;;;;;;6.25;2.00;;;;;;;6.02;100.00;99367.13;4703511;30;20070;-69
2023/01/16 01:38:39;;;;;;;9.25;2.15;;;;;;;6.01;100.00;99365.50;4719407;30;20065;-67
2023/01/16 01:41:07;;;;;;;6.93;2.40;;;;;;;5.98;100.00;99356.84;4719931;30;20053;-67
2023/01/16 01:43:50;;;;;;;7.15;2.35;;;;;;;5.98;100.00;99356.84;4718136;30;20053;-68
2023/01/16 01:46:39;;;;;;;4.82;1.90;;;;;;;5.97;100.00;99343.63;4703749;30;20149;-69
2023/01/16 01:49:27;;;;;;;5.82;2.30;;;;;;;5.97;100.00;99341.72;4719804;30;20057;-69
2023/01/16 01:51:57;;;;;;;5.38;1.90;;;;;;;5.97;100.00;99333.63;4704517;30;20084;-67
2023/01/16 01:54:32;;;;;;;6.53;2.13;;;;;;;5.97;100.00;99328.22;4717754;30;20060;-68
2023/01/16 01:57:15;;;;;;;4.72;1.77;;;;;;;5.96;100.00;99320.34;4720083;30;20061;-67
2023/01/16 01:59:50;;;;;;;6.57;1.95;;;;;;;5.93;100.00;99310.88;4719029;30;20053;-68
2023/01/16 02:02:22;;;;;;;6.45;2.05;;;;;;;5.94;100.00;99307.13;4718639;30;20049;-68
2023/01/16 02:04:56;;;;;;;7.82;1.95;;;;;;;5.94;100.00;99300.91;4703403;30;20057;-71
2023/01/16 02:07:27;;;;;;;3.90;1.73;;;;;;;5.91;100.00;99294.13;4719989;30;20053;-69
2023/01/16 02:10:27;;;;;;;7.10;2.22;;;;;;;5.88;100.00;99291.97;4705083;30;20056;-68
2023/01/16 02:12:55;;;;;;;9.02;2.45;;;;;;;5.86;100.00;99286.03;4719486;30;20033;-68
2023/01/16 02:15:23;;;;;;;7.80;2.67;;;;;;;5.83;100.00;99278.47;4718736;30;20042;-68
2023/01/16 02:20:54;;;;;;;6.88;2.30;;;;;;;5.83;100.00;99272.25;4704461;30;20059;-70
2023/01/16 02:23:46;;;;;;;5.43;2.25;;;;;;;5.81;100.00;99264.41;4719666;30;20139;-68
2023/01/16 02:26:32;;;;;;;4.78;1.85;;;;;;;5.80;100.00;99262.81;4717578;30;20503;-69
2023/01/16 02:29:14;;;;;;;5.28;1.98;;;;;;;5.80;100.00;99248.47;4718442;30;20045;-67
2023/01/16 02:32:34;;;;;;;6.95;2.20;;;;;;;5.81;100.00;99242.81;4703667;30;20387;-67
2023/01/16 02:35:18;;;;;;;4.88;2.00;;;;;;;5.77;100.00;99236.31;4702671;30;20057;-67
2023/01/16 02:37:59;;;;;;;6.65;2.30;;;;;;;5.72;100.00;99233.63;4708920;30;20049;-67
2023/01/16 02:40:42;;;;;;;7.10;2.25;;;;;;;5.70;100.00;99230.41;4731124;30;20060;-66
2023/01/16 02:43:15;;;;;;;8.15;2.80;;;;;;;5.71;100.00;99210.41;4711938;30;20061;-69
2023/01/16 02:45:43;;;;;;;6.68;2.30;;;;;;;5.73;100.00;99205.53;4712192;30;20064;-73
2023/01/16 02:48:37;;;;;;;6.82;2.35;;;;;;;5.64;100.00;99201.78;4728205;30;20045;-67
2023/01/16 02:51:47;;;;;;;6.75;2.17;;;;;;;5.62;100.00;99195.84;4711025;30;20057;-69
2023/01/16 02:54:19;;;;;;;6.57;2.15;;;;;;;5.60;100.00;99181.81;4718885;30;20084;-68
2023/01/16 02:56:51;;;;;;;6.13;2.30;;;;;;;5.60;100.00;99171.00;4715139;30;20423;-68
2023/01/16 02:59:19;;;;;;;11.70;2.88;;;;;;;5.57;100.00;99158.03;4701262;30;20060;-68
2023/01/16 03:01:49;;;;;;;5.97;2.28;;;;;;;5.54;100.00;99154.00;4697463;30;20049;-68
2023/01/16 03:04:35;;;;;;;5.38;2.05;;;;;;;5.56;100.00;99143.75;4703323;30;20061;-66
2023/01/16 03:07:08;;;;;;;7.10;2.63;;;;;;;5.58;100.00;99138.03;4717165;30;20059;-67
2023/01/16 03:09:58;;;;;;;8.90;2.63;;;;;;;5.62;100.00;99131.00;4719351;30;20048;-68
2023/01/16 03:13:04;;;;;;;8.30;2.92;;;;;;;5.65;100.00;99127.75;4718061;30;20085;-68
2023/01/16 03:15:58;;;;;;;6.18;2.15;;;;;;;5.67;100.00;99125.56;4716956;30;20060;-68
2023/01/16 03:18:53;;;;;;;7.70;2.70;;;;;;;5.66;100.00;99115.88;4700182;30;20482;-68
2023/01/16 03:21:56;;;;;;;7.78;2.50;;;;;;;5.65;100.00;99108.81;4706040;30;20078;-68
2023/01/16 03:24:44;;;;;;;4.38;2.10;;;;;;;5.67;100.00;99101.25;4690012;30;20152;-68
2023/01/16 03:27:28;;;;;;;3.97;1.85;;;;;;;5.66;100.00;99099.66;4717538;30;20045;-68
2023/01/16 03:30:31;;;;;;;9.18;2.40;;;;;;;5.62;100.00;99090.47;4688843;30;20060;-68
2023/01/16 03:33:05;;;;;;;7.88;2.50;;;;;;;5.57;100.00;99080.50;4700964;30;20088;-68
2023/01/16 03:35:55;;;;;;;5.78;2.10;;;;;;;5.55;100.00;99078.06;4703768;30;20481;-67
2023/01/16 03:38:24;;;;;;;5.65;2.20;;;;;;;5.57;100.00;99068.91;4719185;30;20129;-65
2023/01/16 03:40:52;;;;;;;6.20;2.58;;;;;;;5.57;100.00;99060.78;4731135;30;20101;-66
2023/01/16 03:43:35;;;;;;;5.18;2.13;;;;;;;5.58;100.00;99054.28;4729036;30;20073;-68
2023/01/16 03:46:18;;;;;;;5.15;2.10;;;;;;;5.58;100.00;99044.31;4710023;30;20064;-63
2023/01/16 03:48:50;;;;;;;5.72;2.40;;;;;;;5.58;100.00;99032.69;4726768;30;20084;-68
2023/01/16 03:51:24;;;;;;;5.68;2.20;;;;;;;5.58;100.00;99032.69;4730126;30;20060;-67
2023/01/16 03:54:20;;;;;;;6.25;2.10;;;;;;;5.53;100.00;99023.53;4719341;30;20514;-68
2023/01/16 03:56:50;;;;;;;8.68;2.47;;;;;;;5.48;100.00;99018.16;4718991;30;20480;-68
2023/01/16 03:59:18;;;;;;;7.43;2.42;;;;;;;5.44;100.00;99006.28;4714528;30;20562;-68
2023/01/16 04:01:58;;;;;;;7.63;2.20;;;;;;;5.42;100.00;98992.25;4700184;30;20121;-68
2023/01/16 04:04:26;;;;;;;10.07;2.90;;;;;;;5.41;100.00;98989.81;4701380;30;20042;-68
2023/01/16 04:07:11;;;;;;;7.82;2.42;;;;;;;5.38;100.00;98985.78;4696644;30;20526;-67
2023/01/16 04:09:46;;;;;;;7.63;2.55;;;;;;;5.41;100.00;98971.75;4707146;30;20533;-69
2023/01/16 04:12:17;;;;;;;6.53;2.30;;;;;;;5.44;100.00;98962.28;4702935;30;20155;-68
2023/01/16 04:14:52;;;;;;;5.93;2.40;;;;;;;5.44;100.00;98949.59;4717082;30;20057;-72
2023/01/16 04:17:21;;;;;;;8.40;2.35;;;;;;;5.40;100.00;98940.41;4703847;30;20053;-68
2023/01/16 04:19:48;;;;;;;6.95;2.72;;;;;;;5.39;100.00;98944.22;4704435;30;20061;-68
2023/01/16 04:22:25;;;;;;;7.70;2.50;;;;;;;5.42;100.00;98926.63;4689215;30;20065;-67
2023/01/16 04:24:58;;;;;;;9.07;2.60;;;;;;;5.42;100.00;98913.94;4704900;30;20411;-69
2023/01/16 04:27:26;;;;;;;8.32;2.47;;;;;;;5.44;100.00;98913.66;4705363;30;20072;-67
2023/01/16 04:29:55;;;;;;;7.50;2.53;;;;;;;5.47;100.00;98905.00;4721837;30;20148;-67
2023/01/16 04:32:23;;;;;;;6.13;2.47;;;;;;;5.52;100.00;98899.56;4706362;30;20067;-68
2023/01/16 04:34:50;;;;;;;6.55;2.47;;;;;;;5.56;100.00;98889.81;4721664;30;20068;-68
2023/01/16 04:37:18;;;;;;;5.47;2.08;;;;;;;5.59;100.00;98875.72;4719957;30;20077;-67
2023/01/16 04:39:47;;;;;;;6.43;2.42;;;;;;;5.62;100.00;98871.66;4720642;30;20049;-68
2023/01/16 04:42:15;;;;;;;5.72;2.05;;;;;;;5.61;100.00;98865.44;4721728;30;20064;-66
2023/01/16 04:44:43;;;;;;;8.30;2.60;;;;;;;5.61;100.00;98851.94;4719823;30;20045;-69
2023/01/16 04:47:11;;;;;;;7.40;2.47;;;;;;;5.61;100.00;98843.03;4719248;30;20430;-67
2023/01/16 04:49:39;;;;;;;7.90;2.38;;;;;;;5.59;100.00;98823.59;4721474;30;20131;-68
2023/01/16 04:52:07;;;;;;;7.60;2.70;;;;;;;5.61;100.00;98821.41;4719894;30;20053;-68
2023/01/16 04:54:34;;;;;;;5.18;2.17;;;;;;;5.62;100.00;98817.63;4720392;30;20132;-67
2023/01/16 04:57:02;;;;;;;6.60;2.70;;;;;;;5.60;100.00;98809.00;4705053;30;22141;-68
2023/01/16 04:59:30;;;;;;;6.32;2.47;;;;;;;5.60;100.00;98798.97;4721479;30;20055;-67
2023/01/16 05:01:58;;;;;;;7.78;2.38;;;;;;;5.61;100.00;98789.81;4720126;30;20153;-68
2023/01/16 05:04:25;;;;;;;5.28;2.20;;;;;;;5.60;100.00;98784.69;4705354;30;20087;-68
2023/01/16 05:06:54;;;;;;;7.13;2.60;;;;;;;5.61;100.00;98780.91;4720819;30;20103;-67
2023/01/16 05:09:21;;;;;;;6.43;2.40;;;;;;;5.59;100.00;98775.78;4701305;30;20127;-68
2023/01/16 05:11:49;;;;;;;6.43;2.25;;;;;;;5.59;100.00;98762.25;4704010;30;20136;-67
2023/01/16 05:14:17;;;;;;;7.80;2.55;;;;;;;5.55;100.00;98748.50;4702435;30;20065;-69
2023/01/16 05:16:44;;;;;;;7.13;2.63;;;;;;;5.49;100.00;98746.16;4703633;30;20069;-69
2023/01/16 05:19:12;;;;;;;5.60;2.60;;;;;;;5.41;100.00;98735.97;4712894;30;20069;-68
2023/01/16 05:21:40;;;;;;;7.07;2.10;;;;;;;5.40;100.00;98728.97;4701803;30;20053;-71
2023/01/16 05:24:08;;;;;;;5.30;2.20;;;;;;;5.36;100.00;98717.13;4718064;30;20053;-68
2023/01/16 05:26:38;;;;;;;6.90;2.42;;;;;;;5.30;100.00;98708.28;4703773;30;20080;-69
2023/01/16 05:29:06;;;;;;;4.57;2.40;;;;;;;5.29;100.00;98702.06;4718786;30;20065;-71
2023/01/16 05:31:33;;;;;;;5.80;2.58;;;;;;;5.25;100.00;98695.63;4705733;30;20053;-68
2023/01/16 05:34:01;;;;;;;7.18;2.38;;;;;;;5.22;100.00;98687.28;4691111;30;20096;-68
2023/01/16 05:36:29;;;;;;;5.55;2.35;;;;;;;5.25;100.00;98667.84;4703931;30;20049;-67
2023/01/16 05:38:56;;;;;;;8.10;2.80;;;;;;;5.30;100.00;98670.47;4705349;30;20060;-66
2023/01/16 05:41:24;;;;;;;8.18;2.88;;;;;;;5.31;100.00;98662.06;4719335;30;20060;-68
2023/01/16 05:43:52;;;;;;;6.15;2.30;;;;;;;5.30;100.00;98655.06;4720428;30;20079;-72
2023/01/16 05:46:19;;;;;;;7.05;2.85;;;;;;;5.32;100.00;98647.50;4718158;30;20141;-67
2023/01/16 05:48:47;;;;;;;6.30;2.38;;;;;;;5.32;100.00;98635.91;4720240;30;20059;-70
2023/01/16 05:51:16;;;;;;;4.63;2.00;;;;;;;5.34;100.00;98633.72;4705023;30;20554;-68
2023/01/16 05:53:47;;;;;;;8.27;2.90;;;;;;;5.35;100.00;98619.13;4720007;30;20415;-70
2023/01/16 05:56:14;;;;;;;6.75;2.53;;;;;;;5.30;100.00;98611.88;4706041;30;20089;-67
2023/01/16 05:58:42;;;;;;;8.15;2.72;;;;;;;5.28;100.00;98597.84;4704006;30;20495;-67
2023/01/16 06:01:10;;;;;;;6.85;2.35;;;;;;;5.26;100.00;98588.44;4719643;30;20065;-68
2023/01/16 06:03:37;;;;;;;6.82;2.50;;;;;;;5.33;100.00;98578.09;4715207;30;20109;-68
2023/01/16 06:06:05;;;;;;;8.98;2.45;;;;;;;5.31;100.00;98569.47;4690832;30;20063;-67
2023/01/16 06:08:34;;;;;;;7.18;2.42;;;;;;;5.29;100.00;98567.06;4718014;30;20057;-68
2023/01/16 06:11:03;;;;;;;11.80;2.83;;;;;;;5.36;100.00;98550.50;4705860;30;20073;-68
2023/01/16 06:13:30;;;;;;;6.65;2.20;;;;;;;5.35;100.00;98548.91;4687152;30;20053;-68
2023/01/16 06:15:58;;;;;;;4.50;1.98;;;;;;;5.30;100.00;98546.28;4700736;30;20140;-68
2023/01/16 06:18:27;;;;;;;5.65;2.13;;;;;;;5.27;100.00;98542.25;4707755;30;20105;-68
2023/01/16 06:20:55;;;;;;;6.90;1.95;;;;;;;5.30;100.00;98535.47;4390447;30;10000097;-69
2023/01/16 06:23:22;;;;;;;4.88;1.75;;;;;;;5.34;100.00;98537.31;4715163;30;20546;-71
2023/01/16 06:25:50;;;;;;;5.88;2.20;;;;;;;5.40;100.00;98535.34;4716167;30;20060;-68
2023/01/16 06:28:18;;;;;;;4.90;2.00;;;;;;;5.44;100.00;98538.28;4715385;30;20096;-72
2023/01/16 06:30:52;;;;;;;6.57;2.55;;;;;;;5.44;100.00;98539.06;4717032;30;20486;-68
2023/01/16 06:33:19;;;;;;;6.55;1.98;;;;;;;5.48;100.00;98534.72;4701898;30;20056;-71
2023/01/16 06:35:48;;;;;;;5.35;1.95;;;;;;;5.52;100.00;98522.19;4716995;30;20053;-70
2023/01/16 06:38:16;;;;;;;6.25;2.20;;;;;;;5.48;100.00;98523.91;4717140;30;20056;-71
2023/01/16 06:40:45;;;;;;;6.80;2.30;;;;;;;5.50;100.00;98518.19;4715253;30;20457;-72
2023/01/16 06:43:13;;;;;;;4.57;2.00;;;;;;;5.50;100.00;98505.47;4686910;30;20124;-72
2023/01/16 06:45:41;;;;;;;4.72;2.05;;;;;;;5.46;100.00;98501.78;4714548;30;20056;-71
2023/01/16 06:48:08;;;;;;;8.82;2.58;;;;;;;5.44;100.00;98484.25;4716881;30;20767;-72
2023/01/16 06:50:36;;;;;;;3.40;1.60;;;;;;;5.41;100.00;98477.56;4717215;30;20129;-70
2023/01/16 06:53:04;;;;;;;5.97;2.00;;;;;;;5.49;100.00;98473.38;4720236;30;20117;-71
2023/01/16 06:55:32;;;;;;;7.20;2.35;;;;;;;5.51;100.00;98452.28;4724132;30;20087;-74
2023/01/16 06:57:59;;;;;;;3.78;1.60;;;;;;;5.48;100.00;98452.84;4692731;30;20181;-72
2023/01/16 07:00:27;;;;;;;6.43;2.20;;;;;;;5.45;100.00;98456.94;4700494;30;20060;-72
2023/01/16 07:02:56;;;;;;;4.63;1.80;;;;;;;5.47;100.00;98449.34;4701853;30;20072;-72
2023/01/16 07:05:25;;;;;;;3.90;1.58;;;;;;;5.53;100.00;98432.00;4701240;30;20132;-71
2023/01/16 07:07:53;;;;;;;4.55;1.63;;;;;;;5.49;100.00;98417.47;4671946;30;20511;-70
2023/01/16 07:10:21;;;;;;;4.25;2.05;;;;;;;5.28;100.00;98406.16;4700236;30;20061;-69
2023/01/16 07:12:52;;;;;;;3.45;1.90;;;;;;;5.26;100.00;98388.66;4701047;30;20144;-73
2023/01/16 07:23:56;;;;;;;4.40;1.77;;;;;;;5.23;100.00;98333.34;4720013;30;20057;-66
2023/01/16 07:26:24;;;;;;;3.47;1.83;;;;;;;5.24;100.00;98334.16;4717856;30;20072;-70
2023/01/16 07:28:52;;;;;;;5.93;1.73;;;;;;;5.18;100.00;98321.84;4722202;30;20057;-65
2023/01/16 07:31:20;;;;;;;3.63;2.00;;;;;;;5.14;100.00;98313.50;4730161;30;20140;-71
2023/01/16 07:33:48;;;;;;;6.97;2.20;;;;;;;5.08;100.00;98302.00;4704111;30;20061;-70
2023/01/16 07:36:16;;;;;;;6.75;2.20;;;;;;;5.15;100.00;98296.25;4700644;30;20463;-71
2023/01/16 07:38:44;;;;;;;4.57;2.00;;;;;;;5.08;100.00;98285.81;4715622;30;20091;-69
2023/01/16 07:41:12;;;;;;;5.72;2.15;;;;;;;5.08;100.00;98280.41;4700139;30;20087;-68
2023/01/16 07:43:39;;;;;;;3.63;1.60;;;;;;;5.06;100.00;98281.81;4670783;30;20603;-68
2023/01/16 07:46:07;;;;;;;5.20;1.85;;;;;;;5.10;100.00;98277.44;4713634;30;20065;-69
2023/01/16 07:48:35;;;;;;;4.22;2.00;;;;;;;5.11;100.00;98268.22;4713836;30;20072;-71
2023/01/16 07:51:03;;;;;;;4.65;1.92;;;;;;;5.16;100.00;98265.44;4699670;30;20053;-69
2023/01/16 07:53:31;;;;;;;6.20;2.33;;;;;;;5.14;100.00;98248.75;4714187;30;20091;-69
2023/01/16 07:56:00;;;;;;;3.90;1.58;;;;;;;5.17;100.00;98252.75;4713854;30;20057;-69
2023/01/16 07:58:29;;;;;;;4.85;1.80;;;;;;;5.22;100.00;98248.06;4699726;30;20063;-69
2023/01/16 08:00:57;;;;;;;6.40;2.33;;;;;;;5.25;100.00;98239.38;4699740;30;20064;-69
2023/01/16 08:03:25;;;;;;;7.82;2.15;;;;;;;5.30;100.00;98235.78;4715805;30;20143;-70
2023/01/16 08:05:57;;;;;;;6.15;2.10;;;;;;;5.37;100.00;98227.31;4713948;30;20510;-69
2023/01/16 08:08:26;;;;;;;5.30;2.50;;;;;;;5.34;100.00;98217.91;4684367;30;20092;-67
2023/01/16 08:10:59;;;;;;;5.75;1.92;;;;;;;5.31;100.00;98207.69;4685151;30;20144;-70
2023/01/16 08:13:40;;;;;;;5.70;1.95;;;;;;;5.33;100.00;98200.88;4714876;30;20057;-70
2023/01/16 08:16:08;;;;;;;9.65;1.92;;;;;;;5.31;100.00;98196.88;4698615;30;20061;-69
2023/01/16 08:18:35;;;;;;;3.75;1.92;;;;;;;5.31;100.00;98191.47;4714695;30;20156;-68
2023/01/16 08:21:03;;;;;;;4.30;1.95;;;;;;;5.34;100.00;98190.91;4714307;30;20049;-70
2023/01/16 08:23:31;;;;;;;4.07;1.83;;;;;;;5.37;100.00;98176.81;4715285;30;20055;-70
2023/01/16 08:26:00;;;;;;;4.18;1.77;;;;;;;5.30;100.00;98161.00;4717134;30;20052;-68
2023/01/16 08:28:28;;;;;;;4.50;2.10;;;;;;;5.27;100.00;98158.09;4716348;30;20057;-69
2023/01/16 08:30:55;;;;;;;4.40;2.00;;;;;;;5.24;100.00;98155.97;4716794;30;20069;-69
2023/01/16 08:33:24;;;;;;;4.38;1.98;;;;;;;5.24;100.00;98143.31;4717895;30;20127;-69
2023/01/16 08:35:52;;;;;;;3.08;1.60;;;;;;;5.22;100.00;98131.19;4687870;30;20415;-70
2023/01/16 08:38:19;;;;;;;3.22;1.85;;;;;;;5.21;100.00;98124.19;4716999;30;20053;-69
2023/01/16 08:40:47;;;;;;;5.38;2.30;;;;;;;5.21;100.00;98106.09;4717799;30;20057;-69
2023/01/16 08:51:34;;;;;;;4.18;1.65;;;;;;;5.38;100.00;98089.28;4717488;30;20076;-70
2023/01/16 08:54:02;;;;;;;5.13;1.80;;;;;;;5.30;100.00;98084.59;4702352;30;20075;-70
2023/01/16 08:56:30;;;;;;;4.22;1.90;;;;;;;5.27;100.00;98077.13;4701894;30;20111;-70
2023/01/16 08:58:57;;;;;;;10.73;3.03;;;;;;;5.35;100.00;98084.50;4716627;30;20128;-70
2023/01/16 09:01:27;;;;;;;5.03;2.47;;;;;;;5.47;100.00;98084.78;4716624;30;20140;-69
2023/01/16 09:03:55;;;;;;;4.97;2.22;;;;;;;5.52;100.00;98075.78;4705286;30;20061;-70
2023/01/16 09:06:24;;;;;;;9.82;2.80;;;;;;;5.54;100.00;98070.88;4706323;30;20084;-70
2023/01/16 09:08:53;;;;;;;13.30;4.35;;;;;;;5.55;100.00;98065.16;4718914;30;20132;-69
2023/01/16 09:14:07;;;;;;;;;;;;;;;5.51;100.00;98066.88;4720023;30;20129;-69
2023/01/16 09:16:52;;;;;;;6.68;2.38;;;;;;;5.52;100.00;98060.38;4707268;30;19970;-70
2023/01/16 09:19:22;;;;;;;4.05;1.95;;;;;;;5.51;100.00;98061.50;4716095;30;20508;-69
2023/01/16 09:21:50;;;;;;;3.80;1.60;;;;;;;5.50;100.00;98070.66;4702992;30;20076;-71
2023/01/16 09:24:18;;;;;;;3.78;1.80;;;;;;;5.42;100.00;98063.28;4702236;30;20056;-72
2023/01/16 09:26:46;;;;;;;3.78;1.90;;;;;;;5.40;100.00;98070.91;4687708;30;20539;-70
2023/01/16 09:29:13;;;;;;;2.85;1.65;;;;;;;5.40;100.00;98064.69;4717430;30;20419;-71
2023/01/16 09:31:41;;;;;;;3.15;1.92;;;;;;;5.36;100.00;98064.50;4687325;30;20073;-71
2023/01/16 09:34:09;;;;;;;2.97;1.40;;;;;;;5.41;100.00;98061.72;4673498;30;20062;-71
2023/01/16 09:36:37;;;;;;;2.75;1.25;;;;;;;5.41;100.00;98069.81;4701262;30;20111;-70
2023/01/16 09:39:04;;;;;;;4.70;1.45;;;;;;;5.39;100.00;98061.22;4701945;30;20081;-69
2023/01/16 09:44:22;;;;;;;1.92;1.25;;;;;;;5.17;100.00;98056.53;4704402;30;20053;-71
2023/01/16 09:46:52;;;;;;;3.50;1.45;;;;;;;5.11;100.00;98047.72;4687713;30;20049;-71
2023/01/16 09:49:42;;;;;;;4.35;1.65;;;;;;;5.14;100.00;98046.31;4687745;30;20526;-71
2023/01/16 10:00:40;;;;;;;0.90;0.90;;;;;;;5.25;100.00;98025.31;4697191;30;20088;-71
2023/01/16 10:03:09;;;;;;;2.33;1.25;;;;;;;5.22;100.00;98020.50;4670702;30;20058;-71
2023/01/16 10:06:00;;;;;;;1.95;1.25;;;;;;;5.19;100.00;98023.81;4684669;30;20144;-72
2023/01/16 10:08:57;;;;;;;0.90;0.88;;;;;;;5.21;100.00;98013.53;4709646;30;20060;-71
2023/01/16 10:11:34;;;;;;;1.10;0.90;;;;;;;5.25;100.00;98025.31;4694716;30;20088;-71
2023/01/16 10:14:10;;;;;;;2.75;1.60;;;;;;;5.30;100.00;98011.72;4702510;30;20136;-70
2023/01/16 10:16:47;;;;;;;2.75;1.52;;;;;;;5.35;100.00;98000.81;4697070;30;20042;-70
2023/01/16 10:19:23;;;;;;;1.63;1.00;;;;;;;5.38;100.00;98005.59;4684079;30;20066;-70
2023/01/16 10:22:03;;;;;;;1.58;1.08;;;;;;;5.38;100.00;97992.09;4698810;30;20184;-72
2023/01/16 10:24:55;;;;;;;1.95;1.30;;;;;;;5.42;100.00;97986.91;4684926;30;20058;-71
2023/01/16 10:27:41;;;;;;;1.63;1.17;;;;;;;5.46;100.00;97982.47;4701187;30;20128;-71
2023/01/16 10:30:23;;;;;;;1.40;1.30;;;;;;;5.51;100.00;97979.69;4698476;30;20148;-70
2023/01/16 10:33:02;;;;;;;1.48;1.13;;;;;;;5.54;100.00;97974.44;4656106;30;20100;-71
2023/01/16 10:35:50;;;;;;;4.18;1.48;;;;;;;5.54;100.00;97965.56;4683636;30;20129;-70
2023/01/16 10:38:43;;;;;;;2.83;1.20;;;;;;;5.55;100.00;97954.44;4683974;30;20050;-71
2023/01/16 10:50:16;;;;;;;6.13;2.70;;;;;;;5.79;100.00;97939.03;4698077;30;20046;-71
2023/01/16 10:53:05;;;;;;;3.97;2.13;;;;;;;5.79;100.00;97928.22;4684539;30;20054;-71
2023/01/16 10:55:37;;;;;;;4.25;2.38;;;;;;;5.81;100.00;97929.53;4692391;30;20061;-71
2023/01/16 10:58:26;;;;;;;3.70;2.50;;;;;;;5.85;100.00;97925.09;4691970;30;20074;-70
2023/01/16 11:01:01;;;;;;;3.65;2.30;;;;;;;5.85;100.00;97919.69;4683183;30;20046;-70
2023/01/16 11:03:28;;;;;;;4.80;2.80;;;;;;;5.87;100.00;97912.09;4675275;30;20127;-70
2023/01/16 11:06:15;;;;;;;6.32;2.78;;;;;;;5.84;100.00;97909.97;4666741;30;20054;-70
2023/01/16 11:08:46;;;;;;;3.05;1.88;;;;;;;5.85;100.00;97898.09;4718991;30;20061;-69
2023/01/16 11:19:44;;;;;;;3.42;1.73;;;;;;;5.86;100.00;97875.34;4706782;30;20065;-70
2023/01/16 11:22:24;;;;;;;4.45;1.30;;;;;;;5.86;100.00;97867.25;4715402;30;20049;-70
2023/01/16 11:25:00;;;;;;;3.33;1.38;;;;;;;5.87;100.00;97852.66;4701172;30;20054;-70
2023/01/16 11:27:33;;;;;;;1.73;1.20;;;;;;;5.83;100.00;97846.25;4713882;30;20125;-69
2023/01/16 11:30:11;;;;;;;3.03;1.45;;;;;;;5.83;100.00;97843.56;4714508;30;20057;-69
2023/01/16 11:32:47;;;;;;;2.67;1.50;;;;;;;5.84;100.00;97836.25;4685476;30;20057;-69
2023/01/16 11:35:17;;;;;;;3.20;1.13;;;;;;;5.87;100.00;97833.72;4713256;30;20049;-69
2023/01/16 11:37:48;;;;;;;2.40;1.58;;;;;;;5.87;100.00;97831.03;4714798;30;20054;-70
2023/01/16 11:40:20;;;;;;;2.75;1.75;;;;;;;5.92;100.00;97822.78;4715763;30;20488;-69
2023/01/16 11:46:03;;;;;;;2.90;1.88;;;;;;;5.97;100.00;97806.47;4718007;30;20052;-67
2023/01/16 11:48:37;;;;;;;2.00;1.20;;;;;;;5.94;100.00;97807.09;4717432;30;20356;-69
2023/01/16 11:51:15;;;;;;;2.90;1.67;;;;;;;5.91;100.00;97806.88;4718346;30;20102;-68
2023/01/16 11:53:45;;;;;;;3.08;1.73;;;;;;;5.90;100.00;97791.78;4703150;30;20072;-68
2023/01/16 11:56:37;;;;;;;3.03;2.08;;;;;;;5.92;100.00;97795.75;4717473;30;20087;-68
2023/01/16 11:59:33;;;;;;;3.80;2.50;;;;;;;5.90;100.00;97789.09;4718586;30;20131;-69
2023/01/16 12:02:28;;;;;;;4.60;2.70;;;;;;;5.93;100.00;97778.44;4698877;30;20053;-67
2023/01/16 12:08:20;;;;;;;2.47;1.75;;;;;;;6.01;100.00;97762.59;4701274;30;20057;-67
2023/01/16 12:11:02;;;;;;;3.60;1.60;;;;;;;6.07;100.00;97758.66;4700495;30;20526;-70
2023/01/16 12:14:20;;;;;;;2.47;1.85;;;;;;;6.15;100.00;97750.53;4699620;30;20064;-69
2023/01/16 12:17:24;;;;;;;3.78;1.80;;;;;;;6.18;100.00;97744.53;4698467;30;20056;-68
2023/01/16 12:20:13;;;;;;;4.75;2.25;;;;;;;6.17;100.00;97739.44;4672092;30;20153;-69
2023/01/16 12:22:47;;;;;;;2.42;1.60;;;;;;;6.16;100.00;97735.16;4675540;30;20416;-69
2023/01/16 12:25:29;;;;;;;2.30;1.30;;;;;;;6.16;100.00;97730.53;4668515;30;20062;-69
2023/01/16 12:28:12;;;;;;;2.78;1.30;;;;;;;6.16;100.00;97721.63;4683506;30;20061;-68
2023/01/16 12:34:16;;;;;;;3.20;1.40;;;;;;;6.11;100.00;97721.75;4677561;30;20149;-68
2023/01/16 12:37:13;;;;;;;1.90;1.23;;;;;;;6.10;100.00;97712.06;4683274;30;20085;-68
2023/01/16 12:39:48;;;;;;;2.05;1.67;;;;;;;6.10;100.00;97706.66;4685934;30;20424;-69
2023/01/16 12:45:55;;;;;;;3.25;1.25;;;;;;;6.13;100.00;97697.91;4655028;30;20541;-67
2023/01/16 12:48:51;;;;;;;1.45;1.30;;;;;;;6.14;100.00;97686.00;4691391;30;20085;-69
2023/01/16 12:51:34;;;;;;;1.58;1.45;;;;;;;6.13;100.00;97692.50;4705984;30;20053;-69
2023/01/16 12:54:27;;;;;;;2.85;1.23;;;;;;;6.12;100.00;97680.13;4702845;30;20122;-68
2023/01/16 12:57:33;;;;;;;2.30;1.27;;;;;;;6.13;100.00;97677.09;4691082;30;20080;-69
2023/01/16 13:00:02;;;;;;;;;;;;;;;6.16;100.00;97675.69;4688638;30;20066;-68
2023/01/16 13:02:49;;;;;;;3.13;1.50;;;;;;;6.15;100.00;97674.84;4699457;30;20009;-67
2023/01/16 13:05:22;;;;;;;1.88;1.35;;;;;;;6.14;100.00;97672.50;4683971;30;20133;-68
2023/01/16 13:07:50;;;;;;;3.00;1.60;;;;;;;6.16;100.00;97667.56;4683886;30;20141;-68
2023/01/16 13:13:26;;;;;;;3.95;1.98;;;;;;;6.25;100.00;97657.53;4697415;30;20054;-70